createdAt,value
2023-05-05T00:07:59.461Z,99110.39
2023-05-05T00:18:03.117Z,99102.59
2023-05-05T00:28:06.821Z,99098.04
2023-05-05T00:38:10.372Z,99095.21
2023-05-05T00:48:16.118Z,99088.95
2023-05-05T00:58:19.893Z,99085.65
2023-05-05T01:08:27.067Z,99080.69
2023-05-05T01:18:34.831Z,99084.05
2023-05-05T01:28:53.184Z,99078.61
2023-05-05T01:38:57.628Z,99077.31
2023-05-05T01:49:02.325Z,99082.70
2023-05-05T01:59:06.544Z,99087.98
2023-05-05T02:09:13.184Z,99089.50
2023-05-05T02:19:19.241Z,99086.05
2023-05-05T02:29:22.688Z,99082.33
2023-05-05T02:39:30.759Z,99073.27
2023-05-05T02:49:34.316Z,99064.77
2023-05-05T02:59:49.254Z,99068.52
2023-05-05T03:09:55.870Z,99057.56
2023-05-05T03:20:02.287Z,99044.38
2023-05-05T03:30:09.165Z,99045.94
2023-05-05T03:40:14.119Z,99051.73
2023-05-05T03:50:17.128Z,99055.36
2023-05-05T04:00:19.879Z,99059.08
2023-05-05T04:10:24.129Z,99060.63
2023-05-05T04:20:27.776Z,99071.61
2023-05-05T04:30:31.400Z,99074.36
2023-05-05T04:40:38.999Z,99084.50
2023-05-05T04:50:42.738Z,99086.48
2023-05-05T05:00:47.168Z,99090.33
2023-05-05T05:10:51.521Z,99091.87
2023-05-05T05:20:55.667Z,99092.66
2023-05-05T05:30:59.984Z,99091.69
2023-05-05T05:41:06.186Z,99098.64
2023-05-05T05:51:09.778Z,99096.94
2023-05-05T06:01:13.585Z,99104.85
2023-05-05T06:11:17.209Z,99102.35
2023-05-05T06:21:21.117Z,99105.86
2023-05-05T06:31:25.346Z,99105.30
2023-05-05T06:41:29.375Z,99105.77
2023-05-05T06:51:33.103Z,99103.50
2023-05-05T07:01:36.720Z,99099.90
2023-05-05T07:11:40.425Z,99093.77
2023-05-05T07:21:44.122Z,99092.48
2023-05-05T07:31:47.834Z,99088.09
2023-05-05T07:41:51.743Z,99093.38
2023-05-05T07:51:56.047Z,99100.73
2023-05-05T08:01:59.610Z,99099.27
2023-05-05T08:12:03.918Z,99099.87
2023-05-05T08:22:07.618Z,99094.36
2023-05-05T08:32:11.524Z,99090.82
2023-05-05T08:42:25.423Z,99084.36
2023-05-05T08:52:38.055Z,99090.15
2023-05-05T09:02:42.456Z,99083.11
2023-05-05T09:12:46.601Z,99083.83
2023-05-05T09:22:50.559Z,99089.41
2023-05-05T09:32:55.813Z,99094.87
2023-05-05T09:43:01.965Z,99085.92
2023-05-05T09:53:06.677Z,99089.33
2023-05-05T10:03:10.397Z,99095.17
2023-05-05T10:13:15.471Z,99088.52
2023-05-05T10:23:22.523Z,99082.71
2023-05-05T10:33:32.243Z,99079.41
2023-05-05T10:43:37.443Z,99071.34
2023-05-05T10:53:44.474Z,99066.23
2023-05-05T11:03:49.416Z,99058.84
2023-05-05T11:14:25.483Z,99057.09
2023-05-05T11:24:29.246Z,99041.41
2023-05-05T11:34:33.057Z,99039.76
2023-05-05T11:44:37.728Z,99037.36
2023-05-05T11:54:47.280Z,99027.00
2023-05-05T12:04:52.399Z,99026.57
2023-05-05T12:14:56.180Z,99018.10
2023-05-05T12:25:02.052Z,99009.50
2023-05-05T12:35:08.090Z,99006.91
2023-05-05T12:45:17.614Z,99002.02
2023-05-05T12:55:21.480Z,98995.24
2023-05-05T13:05:31.273Z,98985.56
2023-05-05T13:15:36.044Z,98973.20
2023-05-05T13:25:39.948Z,98963.98
2023-05-05T13:35:43.987Z,98954.35
2023-05-05T13:45:47.666Z,98945.58
2023-05-05T13:55:51.386Z,98939.08
2023-05-05T14:05:55.050Z,98926.23
2023-05-05T14:15:58.834Z,98926.28
2023-05-05T14:26:03.040Z,98926.02
2023-05-05T14:36:07.007Z,98927.25
2023-05-05T14:46:11.631Z,98926.55
2023-05-05T14:56:15.599Z,98919.55
2023-05-05T15:06:20.104Z,98926.05
2023-05-05T15:16:23.825Z,98920.55
2023-05-05T15:26:30.707Z,98912.70
2023-05-05T15:36:34.116Z,98908.86
2023-05-05T15:56:42.491Z,98899.19
2023-05-05T16:06:46.547Z,98889.95
2023-05-05T16:16:50.219Z,98886.70
2023-05-05T16:26:54.328Z,98894.36
2023-05-05T16:36:58.303Z,98902.52
2023-05-05T16:47:04.168Z,98893.78
2023-05-05T16:57:12.289Z,98890.64
2023-05-05T17:07:16.018Z,98898.11
2023-05-05T17:17:20.297Z,98905.88
2023-05-05T17:27:24.521Z,98903.66
2023-05-05T17:37:28.825Z,98906.77
2023-05-05T17:47:32.776Z,98907.66
2023-05-05T17:57:36.655Z,98904.11
2023-05-05T18:07:40.769Z,98908.41
2023-05-05T18:17:44.544Z,98912.70
2023-05-05T18:27:51.722Z,98912.80
2023-05-05T18:37:55.721Z,98920.11
2023-05-05T18:47:59.524Z,98938.84
2023-05-05T18:58:03.277Z,98954.52
2023-05-05T19:08:10.731Z,98956.61
2023-05-05T19:18:14.359Z,98955.58
2023-05-05T19:28:18.344Z,98968.12
2023-05-05T19:38:22.191Z,98961.45
2023-05-05T19:48:26.341Z,98965.52
2023-05-05T19:58:30.981Z,98967.54
2023-05-05T20:08:34.549Z,98969.26
2023-05-05T20:18:38.037Z,98975.26
2023-05-05T20:28:44.768Z,98970.63
2023-05-05T20:38:49.422Z,98964.06
2023-05-05T20:48:53.336Z,98973.93
2023-05-05T20:58:56.634Z,98976.64
2023-05-05T21:09:04.950Z,98984.11
2023-05-05T21:19:08.871Z,98975.06
2023-05-05T21:29:13.158Z,98963.92
2023-05-05T21:39:16.788Z,98958.77
2023-05-05T21:49:20.308Z,98957.05
2023-05-05T21:59:27.761Z,98952.98
2023-05-05T22:09:31.926Z,98945.26
2023-05-05T22:19:36.259Z,98944.94
2023-05-05T22:29:40.500Z,98945.86
2023-05-05T22:39:44.355Z,98941.33
2023-05-05T22:49:48.171Z,98933.05
2023-05-05T22:59:52.413Z,98915.33
2023-05-05T23:09:56.142Z,98917.13
2023-05-05T23:20:01.927Z,98921.43
2023-05-05T23:30:07.278Z,98925.56
2023-05-05T23:40:10.986Z,98931.02
2023-05-05T23:50:14.543Z,98908.30
